sensor_id;sensor_type;location;lat;lon;timestamp;temperature;humidity
67186;HTU21D;54116;53.518;49.398;2024-02-15T00:00:06;-30.05;118.99
67186;HTU21D;54116;53.518;49.398;2024-02-15T00:02:33;-29.95;118.99
67186;HTU21D;54116;53.518;49.398;2024-02-15T00:04:59;-30.01;118.99
67186;HTU21D;54116;53.518;49.398;2024-02-15T00:07:25;-30.05;118.99
67186;HTU21D;54116;53.518;49.398;2024-02-15T00:12:25;-30.05;118.99
67186;HTU21D;54116;53.518;49.398;2024-02-15T00:14:51;-30.09;118.99
67186;HTU21D;54116;53.518;49.398;2024-02-15T00:17:17;-30.23;118.99
67186;HTU21D;54116;53.518;49.398;2024-02-15T00:22:15;-30.26;118.99
67186;HTU21D;54116;53.518;49.398;2024-02-15T00:24:41;-30.28;118.99
67186;HTU21D;54116;53.518;49.398;2024-02-15T00:27:09;-30.41;118.99
67186;HTU21D;54116;53.518;49.398;2024-02-15T00:29:41;-30.34;118.99
67186;HTU21D;54116;53.518;49.398;2024-02-15T00:44:54;-30.57;118.99
67186;HTU21D;54116;53.518;49.398;2024-02-15T00:47:34;-30.61;118.99
67186;HTU21D;54116;53.518;49.398;2024-02-15T00:50:00;-30.40;118.99
67186;HTU21D;54116;53.518;49.398;2024-02-15T00:54:37;-30.48;118.99
67186;HTU21D;54116;53.518;49.398;2024-02-15T00:57:04;-30.61;118.99
67186;HTU21D;54116;53.518;49.398;2024-02-15T00:59:30;-30.62;118.99
67186;HTU21D;54116;53.518;49.398;2024-02-15T01:06:58;-30.59;118.99
67186;HTU21D;54116;53.518;49.398;2024-02-15T01:09:24;-30.61;118.99
67186;HTU21D;54116;53.518;49.398;2024-02-15T01:11:50;-30.61;118.99
67186;HTU21D;54116;53.518;49.398;2024-02-15T01:14:16;-30.56;118.99
67186;HTU21D;54116;53.518;49.398;2024-02-15T01:16:43;-30.38;118.99
67186;HTU21D;54116;53.518;49.398;2024-02-15T01:19:23;-30.47;118.99
67186;HTU21D;54116;53.518;49.398;2024-02-15T01:22:49;-30.58;118.99
67186;HTU21D;54116;53.518;49.398;2024-02-15T01:25:17;-30.60;118.99
67186;HTU21D;54116;53.518;49.398;2024-02-15T01:27:43;-30.56;118.99
67186;HTU21D;54116;53.518;49.398;2024-02-15T01:30:09;-30.60;118.99
67186;HTU21D;54116;53.518;49.398;2024-02-15T01:32:36;-30.53;118.99
67186;HTU21D;54116;53.518;49.398;2024-02-15T01:35:03;-30.57;118.99
67186;HTU21D;54116;53.518;49.398;2024-02-15T01:37:29;-30.49;118.99
67186;HTU21D;54116;53.518;49.398;2024-02-15T01:42:27;-30.67;118.99
67186;HTU21D;54116;53.518;49.398;2024-02-15T01:45:07;-30.74;118.99
67186;HTU21D;54116;53.518;49.398;2024-02-15T01:47:33;-30.71;118.99
67186;HTU21D;54116;53.518;49.398;2024-02-15T01:49:59;-30.79;118.99
67186;HTU21D;54116;53.518;49.398;2024-02-15T01:52:26;-30.72;118.99
67186;HTU21D;54116;53.518;49.398;2024-02-15T01:54:53;-30.66;118.99
67186;HTU21D;54116;53.518;49.398;2024-02-15T01:57:20;-30.61;118.99
67186;HTU21D;54116;53.518;49.398;2024-02-15T01:59:47;-30.54;118.99
67186;HTU21D;54116;53.518;49.398;2024-02-15T02:02:14;-30.57;118.99
67186;HTU21D;54116;53.518;49.398;2024-02-15T02:04:42;-30.67;118.99
67186;HTU21D;54116;53.518;49.398;2024-02-15T02:07:08;-30.83;118.99
67186;HTU21D;54116;53.518;49.398;2024-02-15T02:09:34;-30.82;118.99
67186;HTU21D;54116;53.518;49.398;2024-02-15T02:12:00;-30.98;118.99
67186;HTU21D;54116;53.518;49.398;2024-02-15T02:14:26;-31.08;118.99
67186;HTU21D;54116;53.518;49.398;2024-02-15T02:16:53;-31.16;118.99
67186;HTU21D;54116;53.518;49.398;2024-02-15T02:20:11;-31.23;118.99
67186;HTU21D;54116;53.518;49.398;2024-02-15T02:22:39;-31.23;118.99
67186;HTU21D;54116;53.518;49.398;2024-02-15T02:25:07;-31.03;118.99
67186;HTU21D;54116;53.518;49.398;2024-02-15T02:27:35;-30.79;118.99
67186;HTU21D;54116;53.518;49.398;2024-02-15T02:30:05;-30.67;118.99
67186;HTU21D;54116;53.518;49.398;2024-02-15T02:32:35;-30.70;118.99
67186;HTU21D;54116;53.518;49.398;2024-02-15T02:35:02;-30.70;118.99
67186;HTU21D;54116;53.518;49.398;2024-02-15T02:37:29;-30.64;118.99
67186;HTU21D;54116;53.518;49.398;2024-02-15T02:39:56;-30.75;118.99
67186;HTU21D;54116;53.518;49.398;2024-02-15T02:42:22;-30.98;118.99
67186;HTU21D;54116;53.518;49.398;2024-02-15T02:44:48;-31.09;118.99
67186;HTU21D;54116;53.518;49.398;2024-02-15T02:47:15;-31.28;118.99
67186;HTU21D;54116;53.518;49.398;2024-02-15T02:49:41;-31.38;118.99
67186;HTU21D;54116;53.518;49.398;2024-02-15T02:52:08;-31.41;118.99
67186;HTU21D;54116;53.518;49.398;2024-02-15T02:54:34;-31.50;118.99
67186;HTU21D;54116;53.518;49.398;2024-02-15T02:57:00;-31.55;118.99
67186;HTU21D;54116;53.518;49.398;2024-02-15T03:01:37;-31.64;118.99
67186;HTU21D;54116;53.518;49.398;2024-02-15T03:05:03;-31.65;118.99
67186;HTU21D;54116;53.518;49.398;2024-02-15T03:07:33;-31.73;118.99
67186;HTU21D;54116;53.518;49.398;2024-02-15T03:12:31;-31.71;118.99
67186;HTU21D;54116;53.518;49.398;2024-02-15T03:15:13;-31.71;118.99
67186;HTU21D;54116;53.518;49.398;2024-02-15T03:17:41;-31.66;118.99
67186;HTU21D;54116;53.518;49.398;2024-02-15T03:20:08;-31.68;118.99
67186;HTU21D;54116;53.518;49.398;2024-02-15T03:22:56;-31.58;118.99
67186;HTU21D;54116;53.518;49.398;2024-02-15T03:25:24;-31.63;118.99
67186;HTU21D;54116;53.518;49.398;2024-02-15T03:27:52;-31.64;118.99
67186;HTU21D;54116;53.518;49.398;2024-02-15T03:30:18;-31.70;118.99
67186;HTU21D;54116;53.518;49.398;2024-02-15T03:32:48;-31.64;118.99
67186;HTU21D;54116;53.518;49.398;2024-02-15T03:35:17;-31.65;118.99
67186;HTU21D;54116;53.518;49.398;2024-02-15T03:39:08;-31.80;118.99
67186;HTU21D;54116;53.518;49.398;2024-02-15T03:41:35;-31.85;118.99
67186;HTU21D;54116;53.518;49.398;2024-02-15T03:44:01;-31.86;118.99
67186;HTU21D;54116;53.518;49.398;2024-02-15T03:46:27;-31.86;118.99
67186;HTU21D;54116;53.518;49.398;2024-02-15T03:48:53;-31.94;118.99
67186;HTU21D;54116;53.518;49.398;2024-02-15T03:51:21;-31.92;118.99
67186;HTU21D;54116;53.518;49.398;2024-02-15T03:53:50;-31.90;118.99
67186;HTU21D;54116;53.518;49.398;2024-02-15T03:56:18;-31.52;118.99
67186;HTU21D;54116;53.518;49.398;2024-02-15T04:01:59;-31.29;118.99
67186;HTU21D;54116;53.518;49.398;2024-02-15T04:04:25;-31.22;118.99
67186;HTU21D;54116;53.518;49.398;2024-02-15T04:06:51;-31.28;118.99
67186;HTU21D;54116;53.518;49.398;2024-02-15T04:09:18;-31.26;118.99
67186;HTU21D;54116;53.518;49.398;2024-02-15T04:11:47;-31.15;118.99
67186;HTU21D;54116;53.518;49.398;2024-02-15T04:14:16;-31.12;118.99
67186;HTU21D;54116;53.518;49.398;2024-02-15T04:20:54;-31.07;118.99
67186;HTU21D;54116;53.518;49.398;2024-02-15T04:23:21;-31.06;118.99
67186;HTU21D;54116;53.518;49.398;2024-02-15T04:25:47;-30.99;118.99
67186;HTU21D;54116;53.518;49.398;2024-02-15T04:28:16;-30.99;118.99
67186;HTU21D;54116;53.518;49.398;2024-02-15T04:30:42;-31.04;118.99
67186;HTU21D;54116;53.518;49.398;2024-02-15T04:33:08;-30.91;118.99
67186;HTU21D;54116;53.518;49.398;2024-02-15T04:35:35;-30.77;118.99
67186;HTU21D;54116;53.518;49.398;2024-02-15T04:38:01;-30.86;118.99
67186;HTU21D;54116;53.518;49.398;2024-02-15T04:40:32;-30.75;118.99
67186;HTU21D;54116;53.518;49.398;2024-02-15T04:42:59;-30.77;118.99
67186;HTU21D;54116;53.518;49.398;2024-02-15T04:48:55;-30.34;118.99
67186;HTU21D;54116;53.518;49.398;2024-02-15T04:51:23;-30.28;118.99
67186;HTU21D;54116;53.518;49.398;2024-02-15T04:53:50;-30.26;118.99
67186;HTU21D;54116;53.518;49.398;2024-02-15T04:56:16;-29.94;118.99
67186;HTU21D;54116;53.518;49.398;2024-02-15T04:58:48;-29.78;118.99
67186;HTU21D;54116;53.518;49.398;2024-02-15T05:01:15;-29.80;118.99
67186;HTU21D;54116;53.518;49.398;2024-02-15T05:03:44;-30.18;118.99
67186;HTU21D;54116;53.518;49.398;2024-02-15T05:06:11;-30.29;118.99
67186;HTU21D;54116;53.518;49.398;2024-02-15T05:08:39;-30.18;118.99
67186;HTU21D;54116;53.518;49.398;2024-02-15T05:11:12;-30.11;118.99
67186;HTU21D;54116;53.518;49.398;2024-02-15T05:13:45;-30.54;118.99
67186;HTU21D;54116;53.518;49.398;2024-02-15T05:18:02;-30.71;118.99
67186;HTU21D;54116;53.518;49.398;2024-02-15T05:27:11;-30.23;118.99
67186;HTU21D;54116;53.518;49.398;2024-02-15T05:29:37;-29.87;118.99
67186;HTU21D;54116;53.518;49.398;2024-02-15T05:32:37;-29.93;118.99
67186;HTU21D;54116;53.518;49.398;2024-02-15T05:35:10;-29.87;118.99
67186;HTU21D;54116;53.518;49.398;2024-02-15T05:37:37;-29.95;118.99
67186;HTU21D;54116;53.518;49.398;2024-02-15T05:40:05;-29.76;118.99
67186;HTU21D;54116;53.518;49.398;2024-02-15T05:42:32;-29.70;118.99
67186;HTU21D;54116;53.518;49.398;2024-02-15T05:45:36;-29.59;118.99
67186;HTU21D;54116;53.518;49.398;2024-02-15T05:48:04;-29.35;118.99
67186;HTU21D;54116;53.518;49.398;2024-02-15T05:50:32;-29.31;118.99
67186;HTU21D;54116;53.518;49.398;2024-02-15T05:52:58;-29.28;118.99
67186;HTU21D;54116;53.518;49.398;2024-02-15T05:55:27;-29.13;118.99
67186;HTU21D;54116;53.518;49.398;2024-02-15T05:57:55;-29.10;118.99
67186;HTU21D;54116;53.518;49.398;2024-02-15T06:00:21;-29.21;118.99
67186;HTU21D;54116;53.518;49.398;2024-02-15T06:02:47;-29.25;118.99
67186;HTU21D;54116;53.518;49.398;2024-02-15T06:05:13;-28.81;118.99
67186;HTU21D;54116;53.518;49.398;2024-02-15T06:07:43;-28.86;118.99
67186;HTU21D;54116;53.518;49.398;2024-02-15T06:10:09;-29.00;118.99
67186;HTU21D;54116;53.518;49.398;2024-02-15T06:12:35;-28.89;118.99
67186;HTU21D;54116;53.518;49.398;2024-02-15T06:15:04;-28.71;118.99
67186;HTU21D;54116;53.518;49.398;2024-02-15T06:17:32;-28.79;118.99
67186;HTU21D;54116;53.518;49.398;2024-02-15T06:19:58;-28.62;118.99
67186;HTU21D;54116;53.518;49.398;2024-02-15T06:24:38;-28.34;118.99
67186;HTU21D;54116;53.518;49.398;2024-02-15T06:27:05;-28.21;118.99
67186;HTU21D;54116;53.518;49.398;2024-02-15T06:29:31;-28.19;118.99
67186;HTU21D;54116;53.518;49.398;2024-02-15T06:32:16;-28.30;118.99
67186;HTU21D;54116;53.518;49.398;2024-02-15T06:35:01;-28.44;118.99
67186;HTU21D;54116;53.518;49.398;2024-02-15T06:37:45;-28.19;118.99
67186;HTU21D;54116;53.518;49.398;2024-02-15T06:40:56;-28.03;118.99
67186;HTU21D;54116;53.518;49.398;2024-02-15T06:43:24;-27.78;118.99
67186;HTU21D;54116;53.518;49.398;2024-02-15T06:45:50;-27.65;118.99
67186;HTU21D;54116;53.518;49.398;2024-02-15T06:48:17;-27.78;118.99
67186;HTU21D;54116;53.518;49.398;2024-02-15T06:52:03;-27.88;118.99
67186;HTU21D;54116;53.518;49.398;2024-02-15T06:54:29;-27.92;118.99
67186;HTU21D;54116;53.518;49.398;2024-02-15T06:58:23;-27.81;118.99
67186;HTU21D;54116;53.518;49.398;2024-02-15T07:00:50;-27.93;118.99
67186;HTU21D;54116;53.518;49.398;2024-02-15T07:03:17;-27.83;118.99
67186;HTU21D;54116;53.518;49.398;2024-02-15T07:05:44;-27.96;118.99
67186;HTU21D;54116;53.518;49.398;2024-02-15T07:08:31;-27.88;118.99
67186;HTU21D;54116;53.518;49.398;2024-02-15T07:10:57;-27.68;118.99
67186;HTU21D;54116;53.518;49.398;2024-02-15T07:13:24;-27.52;118.99
67186;HTU21D;54116;53.518;49.398;2024-02-15T07:15:52;-27.54;118.99
67186;HTU21D;54116;53.518;49.398;2024-02-15T07:18:18;-27.41;118.99
67186;HTU21D;54116;53.518;49.398;2024-02-15T07:20:48;-27.31;118.99
67186;HTU21D;54116;53.518;49.398;2024-02-15T07:24:54;-27.31;118.99
67186;HTU21D;54116;53.518;49.398;2024-02-15T07:27:22;-27.08;118.99
67186;HTU21D;54116;53.518;49.398;2024-02-15T07:29:51;-26.92;118.99
67186;HTU21D;54116;53.518;49.398;2024-02-15T07:32:27;-26.70;118.99
67186;HTU21D;54116;53.518;49.398;2024-02-15T07:37:24;-26.95;118.99
67186;HTU21D;54116;53.518;49.398;2024-02-15T07:42:26;-26.82;118.99
67186;HTU21D;54116;53.518;49.398;2024-02-15T07:47:30;-27.11;118.99
67186;HTU21D;54116;53.518;49.398;2024-02-15T07:49:56;-27.16;118.99
67186;HTU21D;54116;53.518;49.398;2024-02-15T08:14:46;-26.20;118.99
67186;HTU21D;54116;53.518;49.398;2024-02-15T09:36:59;-24.17;118.99
67186;HTU21D;54116;53.518;49.398;2024-02-15T09:39:26;-24.37;118.99
67186;HTU21D;54116;53.518;49.398;2024-02-15T10:00:47;-24.09;118.99
67186;HTU21D;54116;53.518;49.398;2024-02-15T10:13:13;-24.25;118.99
67186;HTU21D;54116;53.518;49.398;2024-02-15T10:37:45;-23.64;118.99
67186;HTU21D;54116;53.518;49.398;2024-02-15T10:47:20;-23.45;118.99
67186;HTU21D;54116;53.518;49.398;2024-02-15T10:49:46;-23.52;118.99
67186;HTU21D;54116;53.518;49.398;2024-02-15T10:59:38;-23.28;118.99
67186;HTU21D;54116;53.518;49.398;2024-02-15T11:04:20;-23.28;118.99
67186;HTU21D;54116;53.518;49.398;2024-02-15T11:09:20;-22.88;118.99
67186;HTU21D;54116;53.518;49.398;2024-02-15T11:16:41;-22.85;118.99
67186;HTU21D;54116;53.518;49.398;2024-02-15T11:23:37;-22.88;118.99
67186;HTU21D;54116;53.518;49.398;2024-02-15T11:26:04;-22.66;118.99
67186;HTU21D;54116;53.518;49.398;2024-02-15T11:28:37;-22.61;118.99
67186;HTU21D;54116;53.518;49.398;2024-02-15T11:31:07;-22.63;118.99
67186;HTU21D;54116;53.518;49.398;2024-02-15T11:38:34;-22.85;118.99
67186;HTU21D;54116;53.518;49.398;2024-02-15T11:52:09;-22.62;118.99
67186;HTU21D;54116;53.518;49.398;2024-02-15T11:56:57;-22.48;118.99
67186;HTU21D;54116;53.518;49.398;2024-02-15T12:18:22;-22.33;118.99
67186;HTU21D;54116;53.518;49.398;2024-02-15T12:27:54;-22.57;118.99
67186;HTU21D;54116;53.518;49.398;2024-02-15T12:30:21;-22.79;118.99
67186;HTU21D;54116;53.518;49.398;2024-02-15T12:32:48;-23.14;118.99
67186;HTU21D;54116;53.518;49.398;2024-02-15T12:37:27;-23.56;118.99
67186;HTU21D;54116;53.518;49.398;2024-02-15T12:39:53;-23.73;118.99
67186;HTU21D;54116;53.518;49.398;2024-02-15T12:42:20;-23.71;118.99
67186;HTU21D;54116;53.518;49.398;2024-02-15T12:51:51;-24.22;118.99
67186;HTU21D;54116;53.518;49.398;2024-02-15T12:54:23;-24.42;118.99
67186;HTU21D;54116;53.518;49.398;2024-02-15T12:56:50;-24.60;118.99
67186;HTU21D;54116;53.518;49.398;2024-02-15T12:59:19;-24.83;118.99
67186;HTU21D;54116;53.518;49.398;2024-02-15T13:01:47;-24.95;118.99
67186;HTU21D;54116;53.518;49.398;2024-02-15T13:04:31;-25.04;118.99
67186;HTU21D;54116;53.518;49.398;2024-02-15T13:06:58;-25.11;118.99
67186;HTU21D;54116;53.518;49.398;2024-02-15T13:09:24;-25.22;118.99
67186;HTU21D;54116;53.518;49.398;2024-02-15T13:11:50;-25.26;118.99
67186;HTU21D;54116;53.518;49.398;2024-02-15T13:14:19;-25.30;118.99
67186;HTU21D;54116;53.518;49.398;2024-02-15T13:16:46;-25.39;118.99
67186;HTU21D;54116;53.518;49.398;2024-02-15T13:21:31;-25.61;118.99
67186;HTU21D;54116;53.518;49.398;2024-02-15T13:24:00;-25.85;118.99
67186;HTU21D;54116;53.518;49.398;2024-02-15T13:33:11;-26.33;118.99
67186;HTU21D;54116;53.518;49.398;2024-02-15T13:35:38;-26.41;118.99
67186;HTU21D;54116;53.518;49.398;2024-02-15T13:47:29;-26.58;118.99
67186;HTU21D;54116;53.518;49.398;2024-02-15T13:49:57;-26.64;118.99
67186;HTU21D;54116;53.518;49.398;2024-02-15T13:54:54;-26.90;118.99
67186;HTU21D;54116;53.518;49.398;2024-02-15T14:10:39;-27.52;118.99
67186;HTU21D;54116;53.518;49.398;2024-02-15T14:41:33;-28.51;118.99
67186;HTU21D;54116;53.518;49.398;2024-02-15T16:28:57;-30.04;118.99
67186;HTU21D;54116;53.518;49.398;2024-02-15T17:05:20;-30.47;118.99
67186;HTU21D;54116;53.518;49.398;2024-02-15T17:28:52;-30.44;118.99
67186;HTU21D;54116;53.518;49.398;2024-02-15T17:34:00;-30.40;118.99
67186;HTU21D;54116;53.518;49.398;2024-02-15T17:39:08;-30.26;118.99
67186;HTU21D;54116;53.518;49.398;2024-02-15T18:00:29;-29.58;118.99
67186;HTU21D;54116;53.518;49.398;2024-02-15T18:08:33;-29.84;118.99
67186;HTU21D;54116;53.518;49.398;2024-02-15T18:13:54;-30.16;118.99
67186;HTU21D;54116;53.518;49.398;2024-02-15T18:56:16;-31.94;118.99
67186;HTU21D;54116;53.518;49.398;2024-02-15T18:59:01;-32.14;118.99
67186;HTU21D;54116;53.518;49.398;2024-02-15T19:01:31;-32.27;118.99
67186;HTU21D;54116;53.518;49.398;2024-02-15T19:03:58;-32.31;118.99
67186;HTU21D;54116;53.518;49.398;2024-02-15T19:06:25;-32.32;118.99
67186;HTU21D;54116;53.518;49.398;2024-02-15T19:17:20;-32.30;118.99
67186;HTU21D;54116;53.518;49.398;2024-02-15T19:19:47;-32.32;118.99
67186;HTU21D;54116;53.518;49.398;2024-02-15T19:22:13;-32.49;118.99
67186;HTU21D;54116;53.518;49.398;2024-02-15T19:24:39;-32.56;118.99
67186;HTU21D;54116;53.518;49.398;2024-02-15T19:27:05;-32.68;118.99
67186;HTU21D;54116;53.518;49.398;2024-02-15T19:29:33;-32.78;118.99
67186;HTU21D;54116;53.518;49.398;2024-02-15T19:33:38;-33.06;118.99
67186;HTU21D;54116;53.518;49.398;2024-02-15T19:36:24;-33.06;118.99
67186;HTU21D;54116;53.518;49.398;2024-02-15T19:38:51;-33.11;118.99
67186;HTU21D;54116;53.518;49.398;2024-02-15T19:41:37;-32.99;118.99
67186;HTU21D;54116;53.518;49.398;2024-02-15T19:44:04;-33.04;118.99
67186;HTU21D;54116;53.518;49.398;2024-02-15T19:48:49;-33.10;118.99
67186;HTU21D;54116;53.518;49.398;2024-02-15T19:51:16;-33.03;118.99
67186;HTU21D;54116;53.518;49.398;2024-02-15T19:53:42;-33.09;118.99
67186;HTU21D;54116;53.518;49.398;2024-02-15T19:56:08;-33.10;118.99
67186;HTU21D;54116;53.518;49.398;2024-02-15T19:58:37;-33.10;118.99
67186;HTU21D;54116;53.518;49.398;2024-02-15T20:01:03;-33.16;118.99
67186;HTU21D;54116;53.518;49.398;2024-02-15T20:03:30;-33.12;118.99
67186;HTU21D;54116;53.518;49.398;2024-02-15T20:05:57;-33.06;118.99
67186;HTU21D;54116;53.518;49.398;2024-02-15T20:08:27;-33.06;118.99
67186;HTU21D;54116;53.518;49.398;2024-02-15T20:10:54;-33.16;118.99
67186;HTU21D;54116;53.518;49.398;2024-02-15T20:13:22;-33.04;118.99
67186;HTU21D;54116;53.518;49.398;2024-02-15T20:15:48;-32.81;118.99
67186;HTU21D;54116;53.518;49.398;2024-02-15T20:18:20;-32.51;118.99
67186;HTU21D;54116;53.518;49.398;2024-02-15T20:20:49;-32.19;118.99
67186;HTU21D;54116;53.518;49.398;2024-02-15T20:23:17;-31.97;118.99
67186;HTU21D;54116;53.518;49.398;2024-02-15T20:25:43;-31.61;118.99
67186;HTU21D;54116;53.518;49.398;2024-02-15T20:28:12;-31.42;118.99
67186;HTU21D;54116;53.518;49.398;2024-02-15T20:30:39;-31.27;118.99
67186;HTU21D;54116;53.518;49.398;2024-02-15T20:34:56;-30.98;118.99
67186;HTU21D;54116;53.518;49.398;2024-02-15T20:37:24;-30.99;118.99
67186;HTU21D;54116;53.518;49.398;2024-02-15T20:39:50;-31.28;118.99
67186;HTU21D;54116;53.518;49.398;2024-02-15T20:42:19;-31.72;118.99
67186;HTU21D;54116;53.518;49.398;2024-02-15T20:44:45;-32.15;118.99
67186;HTU21D;54116;53.518;49.398;2024-02-15T20:47:11;-32.44;118.99
67186;HTU21D;54116;53.518;49.398;2024-02-15T20:49:39;-32.70;118.99
67186;HTU21D;54116;53.518;49.398;2024-02-15T20:52:05;-32.95;118.99
67186;HTU21D;54116;53.518;49.398;2024-02-15T20:55:57;-33.33;118.99
67186;HTU21D;54116;53.518;49.398;2024-02-15T20:58:23;-33.57;118.99
67186;HTU21D;54116;53.518;49.398;2024-02-15T21:00:51;-33.71;118.99
67186;HTU21D;54116;53.518;49.398;2024-02-15T21:03:20;-33.72;118.99
67186;HTU21D;54116;53.518;49.398;2024-02-15T21:05:46;-33.80;118.99
67186;HTU21D;54116;53.518;49.398;2024-02-15T21:08:12;-33.81;118.99
67186;HTU21D;54116;53.518;49.398;2024-02-15T21:10:38;-33.84;118.99
67186;HTU21D;54116;53.518;49.398;2024-02-15T21:13:04;-33.92;118.99
67186;HTU21D;54116;53.518;49.398;2024-02-15T21:15:34;-33.97;118.99
67186;HTU21D;54116;53.518;49.398;2024-02-15T21:18:03;-34.01;118.99
67186;HTU21D;54116;53.518;49.398;2024-02-15T21:20:29;-33.92;118.99
67186;HTU21D;54116;53.518;49.398;2024-02-15T21:22:56;-33.87;118.99
67186;HTU21D;54116;53.518;49.398;2024-02-15T21:25:35;-33.94;118.99
67186;HTU21D;54116;53.518;49.398;2024-02-15T21:28:01;-33.94;118.99
67186;HTU21D;54116;53.518;49.398;2024-02-15T21:30:27;-33.95;118.99
67186;HTU21D;54116;53.518;49.398;2024-02-15T21:32:56;-33.92;118.99
67186;HTU21D;54116;53.518;49.398;2024-02-15T21:35:24;-33.93;118.99
67186;HTU21D;54116;53.518;49.398;2024-02-15T21:37:50;-34.05;118.99
67186;HTU21D;54116;53.518;49.398;2024-02-15T21:40:16;-34.19;118.99
67186;HTU21D;54116;53.518;49.398;2024-02-15T21:42:42;-34.17;118.99
67186;HTU21D;54116;53.518;49.398;2024-02-15T21:45:09;-34.24;118.99
67186;HTU21D;54116;53.518;49.398;2024-02-15T21:47:38;-34.23;118.99
67186;HTU21D;54116;53.518;49.398;2024-02-15T21:50:07;-34.16;118.99
67186;HTU21D;54116;53.518;49.398;2024-02-15T21:52:33;-34.27;118.99
67186;HTU21D;54116;53.518;49.398;2024-02-15T21:54:59;-34.22;118.99
67186;HTU21D;54116;53.518;49.398;2024-02-15T21:57:25;-34.28;118.99
67186;HTU21D;54116;53.518;49.398;2024-02-15T21:59:51;-34.15;118.99
67186;HTU21D;54116;53.518;49.398;2024-02-15T22:02:17;-34.07;118.99
67186;HTU21D;54116;53.518;49.398;2024-02-15T22:04:45;-33.92;118.99
67186;HTU21D;54116;53.518;49.398;2024-02-15T22:07:11;-33.96;118.99
67186;HTU21D;54116;53.518;49.398;2024-02-15T22:09:39;-33.81;118.99
67186;HTU21D;54116;53.518;49.398;2024-02-15T22:12:06;-33.69;118.99
67186;HTU21D;54116;53.518;49.398;2024-02-15T22:14:32;-33.63;118.99
67186;HTU21D;54116;53.518;49.398;2024-02-15T22:16:58;-33.68;118.99
67186;HTU21D;54116;53.518;49.398;2024-02-15T22:19:24;-33.65;118.99
67186;HTU21D;54116;53.518;49.398;2024-02-15T22:21:50;-33.63;118.99
67186;HTU21D;54116;53.518;49.398;2024-02-15T22:24:17;-33.54;118.99
67186;HTU21D;54116;53.518;49.398;2024-02-15T22:26:44;-33.45;118.99
67186;HTU21D;54116;53.518;49.398;2024-02-15T22:29:10;-33.37;118.99
67186;HTU21D;54116;53.518;49.398;2024-02-15T22:31:36;-33.30;118.99
67186;HTU21D;54116;53.518;49.398;2024-02-15T22:34:02;-33.30;118.99
67186;HTU21D;54116;53.518;49.398;2024-02-15T22:36:29;-33.41;118.99
67186;HTU21D;54116;53.518;49.398;2024-02-15T22:38:57;-33.42;118.99
67186;HTU21D;54116;53.518;49.398;2024-02-15T22:41:23;-33.43;118.99
67186;HTU21D;54116;53.518;49.398;2024-02-15T22:43:49;-33.34;118.99
67186;HTU21D;54116;53.518;49.398;2024-02-15T22:46:15;-33.36;118.99
67186;HTU21D;54116;53.518;49.398;2024-02-15T22:48:42;-32.96;118.99
67186;HTU21D;54116;53.518;49.398;2024-02-15T22:51:09;-32.47;118.99
67186;HTU21D;54116;53.518;49.398;2024-02-15T22:53:42;-32.31;118.99
67186;HTU21D;54116;53.518;49.398;2024-02-15T22:56:12;-32.42;118.99
67186;HTU21D;54116;53.518;49.398;2024-02-15T22:58:42;-32.69;118.99
67186;HTU21D;54116;53.518;49.398;2024-02-15T23:01:09;-32.93;118.99
67186;HTU21D;54116;53.518;49.398;2024-02-15T23:03:37;-33.04;118.99
67186;HTU21D;54116;53.518;49.398;2024-02-15T23:06:05;-32.98;118.99
67186;HTU21D;54116;53.518;49.398;2024-02-15T23:08:34;-32.94;118.99
67186;HTU21D;54116;53.518;49.398;2024-02-15T23:11:00;-32.92;118.99
67186;HTU21D;54116;53.518;49.398;2024-02-15T23:15:38;-32.71;118.99
67186;HTU21D;54116;53.518;49.398;2024-02-15T23:18:05;-32.65;118.99
67186;HTU21D;54116;53.518;49.398;2024-02-15T23:20:31;-32.63;118.99
67186;HTU21D;54116;53.518;49.398;2024-02-15T23:22:57;-32.48;118.99
67186;HTU21D;54116;53.518;49.398;2024-02-15T23:25:23;-32.32;118.99
67186;HTU21D;54116;53.518;49.398;2024-02-15T23:27:49;-32.24;118.99
67186;HTU21D;54116;53.518;49.398;2024-02-15T23:30:15;-32.15;118.99
67186;HTU21D;54116;53.518;49.398;2024-02-15T23:32:42;-31.97;118.99
67186;HTU21D;54116;53.518;49.398;2024-02-15T23:35:08;-31.64;118.99
67186;HTU21D;54116;53.518;49.398;2024-02-15T23:37:43;-31.18;118.99
67186;HTU21D;54116;53.518;49.398;2024-02-15T23:40:28;-30.74;118.99
67186;HTU21D;54116;53.518;49.398;2024-02-15T23:42:54;-30.30;118.99
67186;HTU21D;54116;53.518;49.398;2024-02-15T23:45:21;-30.50;118.99
67186;HTU21D;54116;53.518;49.398;2024-02-15T23:47:48;-30.88;118.99
67186;HTU21D;54116;53.518;49.398;2024-02-15T23:50:15;-31.70;118.99
67186;HTU21D;54116;53.518;49.398;2024-02-15T23:52:45;-32.24;118.99
67186;HTU21D;54116;53.518;49.398;2024-02-15T23:55:12;-32.63;118.99
67186;HTU21D;54116;53.518;49.398;2024-02-15T23:57:40;-32.74;118.99
